createdAt,value
2017-09-21T00:00:58.942Z,91.20
2017-09-21T00:03:26.386Z,91.20
2017-09-21T00:05:54.604Z,91.20
2017-09-21T00:08:22.052Z,91.30
2017-09-21T00:10:49.493Z,91.10
2017-09-21T00:13:16.943Z,91.10
2017-09-21T00:15:44.374Z,91.00
2017-09-21T00:18:12.596Z,90.70
2017-09-21T00:20:40.032Z,90.70
2017-09-21T00:23:07.472Z,90.70
2017-09-21T00:25:35.683Z,90.80
2017-09-21T00:28:03.132Z,90.80
2017-09-21T00:30:30.573Z,90.80
2017-09-21T00:32:58.012Z,90.90
2017-09-21T00:35:26.961Z,90.90
2017-09-21T00:37:54.409Z,90.80
2017-09-21T00:40:21.842Z,90.80
2017-09-21T00:42:49.301Z,90.80
2017-09-21T00:45:16.744Z,90.60
2017-09-21T00:47:44.950Z,90.80
2017-09-21T00:50:12.405Z,90.80
2017-09-21T00:52:41.765Z,90.60
2017-09-21T00:55:09.981Z,90.50
2017-09-21T00:57:37.426Z,90.50
2017-09-21T01:00:04.870Z,90.60
2017-09-21T01:02:32.296Z,90.60
2017-09-21T01:04:59.744Z,90.50
2017-09-21T01:07:27.195Z,90.90
2017-09-21T01:09:54.641Z,90.70
2017-09-21T01:12:22.082Z,90.80
2017-09-21T01:14:49.531Z,90.90
2017-09-21T01:17:16.963Z,91.00
2017-09-21T01:19:45.170Z,90.80
2017-09-21T01:22:12.643Z,90.80
2017-09-21T01:24:40.082Z,91.20
2017-09-21T01:27:07.519Z,91.10
2017-09-21T01:29:34.953Z,91.20
2017-09-21T01:32:03.164Z,91.30
2017-09-21T01:34:30.602Z,91.20
2017-09-21T01:36:58.035Z,91.20
2017-09-21T01:39:25.473Z,91.20
2017-09-21T01:41:52.906Z,91.40
2017-09-21T01:44:20.359Z,91.30
2017-09-21T01:46:47.795Z,91.40
2017-09-21T01:49:15.984Z,91.40
2017-09-21T01:51:43.420Z,91.40
2017-09-21T01:54:10.950Z,91.40
2017-09-21T01:56:38.395Z,91.40
2017-09-21T01:59:05.829Z,91.40
2017-09-21T02:01:33.254Z,91.60
2017-09-21T02:04:00.693Z,91.50
2017-09-21T02:06:28.905Z,91.30
2017-09-21T02:08:56.359Z,91.30
2017-09-21T02:11:24.916Z,91.40
2017-09-21T02:13:53.117Z,91.40
2017-09-21T02:16:20.569Z,91.40
2017-09-21T02:18:47.998Z,91.50
2017-09-21T02:21:16.209Z,91.60
2017-09-21T02:23:43.641Z,91.60
2017-09-21T02:26:11.853Z,91.70
2017-09-21T02:28:39.289Z,91.70
2017-09-21T02:31:06.737Z,91.60
2017-09-21T02:33:34.163Z,91.70
2017-09-21T02:36:01.601Z,91.90
2017-09-21T02:38:29.036Z,91.80
2017-09-21T02:40:56.565Z,91.70
2017-09-21T02:43:23.993Z,91.80
2017-09-21T02:45:52.199Z,91.80
2017-09-21T02:48:19.633Z,91.80
2017-09-21T02:50:47.830Z,92.00
2017-09-21T02:53:15.264Z,92.00
2017-09-21T02:55:43.470Z,92.10
2017-09-21T02:58:10.901Z,92.10
2017-09-21T03:00:39.100Z,91.80
2017-09-21T03:03:06.536Z,91.80
2017-09-21T03:05:33.964Z,91.70
2017-09-21T03:08:02.463Z,91.60
2017-09-21T03:10:30.660Z,91.50
2017-09-21T03:12:58.096Z,91.50
2017-09-21T03:15:26.290Z,91.60
2017-09-21T03:17:53.742Z,91.60
2017-09-21T03:20:21.309Z,91.70
2017-09-21T03:22:48.757Z,91.70
2017-09-21T03:25:16.184Z,91.70
2017-09-21T03:27:43.621Z,91.70
2017-09-21T03:30:11.105Z,91.80
2017-09-21T03:32:38.550Z,91.70
2017-09-21T03:35:05.989Z,91.50
2017-09-21T03:37:33.431Z,91.40
2017-09-21T03:40:00.881Z,91.50
2017-09-21T03:42:28.409Z,91.40
2017-09-21T03:44:55.871Z,91.30
2017-09-21T03:47:23.305Z,91.20
2017-09-21T03:49:50.743Z,91.20
2017-09-21T03:52:18.179Z,91.30
2017-09-21T03:54:47.626Z,91.10
2017-09-21T03:57:15.827Z,91.30
2017-09-21T03:59:43.274Z,91.30
2017-09-21T04:02:10.713Z,91.30
2017-09-21T04:04:38.919Z,91.50
2017-09-21T04:07:06.347Z,91.30
2017-09-21T04:09:34.556Z,91.50
2017-09-21T04:12:01.982Z,91.50
2017-09-21T04:14:30.193Z,91.50
2017-09-21T04:16:58.629Z,91.50
2017-09-21T04:19:26.923Z,91.30
2017-09-21T04:21:55.127Z,91.20
2017-09-21T04:24:22.576Z,91.20
2017-09-21T04:26:50.018Z,91.10
2017-09-21T04:29:18.212Z,91.10
2017-09-21T04:31:45.659Z,91.10
2017-09-21T04:34:13.102Z,91.10
2017-09-21T04:36:41.301Z,91.60
2017-09-21T04:39:08.826Z,91.60
2017-09-21T04:41:37.021Z,91.50
2017-09-21T04:44:04.469Z,91.50
2017-09-21T04:46:32.665Z,92.10
2017-09-21T04:49:00.122Z,92.00
2017-09-21T04:51:27.553Z,92.10
2017-09-21T04:53:55.748Z,92.40
2017-09-21T04:56:23.183Z,92.40
2017-09-21T04:58:51.385Z,92.20
2017-09-21T05:01:18.838Z,92.20
2017-09-21T05:03:46.268Z,91.90
2017-09-21T05:06:14.555Z,91.80
2017-09-21T05:08:42.752Z,91.60
2017-09-21T05:11:10.202Z,91.60
2017-09-21T05:13:37.628Z,91.70
2017-09-21T05:16:05.828Z,91.70
2017-09-21T05:18:33.261Z,91.70
2017-09-21T05:21:01.457Z,91.90
2017-09-21T05:23:28.885Z,91.80
2017-09-21T05:25:57.096Z,91.90
2017-09-21T05:28:24.524Z,91.90
2017-09-21T05:30:52.738Z,92.30
2017-09-21T05:33:20.160Z,92.30
2017-09-21T05:35:48.377Z,92.50
2017-09-21T05:38:15.816Z,92.50
2017-09-21T05:40:43.244Z,92.40
2017-09-21T05:43:11.461Z,92.40
2017-09-21T05:45:38.903Z,92.40
2017-09-21T05:48:06.338Z,92.60
2017-09-21T05:50:34.557Z,92.40
2017-09-21T05:53:02.148Z,92.40
2017-09-21T05:55:29.574Z,92.30
2017-09-21T05:57:57.082Z,92.70
2017-09-21T06:00:25.343Z,92.70
2017-09-21T06:02:52.787Z,92.70
2017-09-21T06:05:20.233Z,92.40
2017-09-21T06:07:47.663Z,92.60
2017-09-21T06:10:15.101Z,92.70
2017-09-21T06:12:42.557Z,92.80
2017-09-21T06:15:09.991Z,92.70
2017-09-21T06:17:38.210Z,92.90
2017-09-21T06:20:05.634Z,92.90
2017-09-21T06:22:33.844Z,92.70
2017-09-21T06:25:01.291Z,92.70
2017-09-21T06:27:28.728Z,92.70
2017-09-21T06:29:56.161Z,92.90
2017-09-21T06:32:23.612Z,92.80
2017-09-21T06:34:51.051Z,92.60
2017-09-21T06:37:19.248Z,93.10
2017-09-21T06:39:46.701Z,93.00
2017-09-21T06:42:14.120Z,93.00
2017-09-21T06:44:41.664Z,93.10
2017-09-21T06:47:09.082Z,92.90
2017-09-21T06:49:36.521Z,93.00
2017-09-21T06:52:03.961Z,93.10
2017-09-21T06:54:31.399Z,93.10
2017-09-21T06:56:58.847Z,93.40
2017-09-21T06:59:26.282Z,93.20
2017-09-21T07:01:54.479Z,93.60
2017-09-21T07:04:21.913Z,93.50
2017-09-21T07:06:50.122Z,94.00
2017-09-21T07:09:17.554Z,94.00
2017-09-21T07:11:44.990Z,93.20
2017-09-21T07:14:13.199Z,93.50
2017-09-21T07:16:41.645Z,93.50
2017-09-21T07:19:09.859Z,93.30
2017-09-21T07:21:37.305Z,93.30
2017-09-21T07:24:04.732Z,92.40
2017-09-21T07:26:32.948Z,93.30
2017-09-21T07:29:00.375Z,93.30
2017-09-21T07:31:28.596Z,92.60
2017-09-21T07:33:56.039Z,92.60
2017-09-21T07:36:23.480Z,92.20
2017-09-21T07:38:50.927Z,92.80
2017-09-21T07:41:18.379Z,92.40
2017-09-21T07:43:46.581Z,92.40
2017-09-21T07:46:14.026Z,92.40
2017-09-21T07:48:41.465Z,92.10
2017-09-21T07:51:09.673Z,91.50
2017-09-21T07:53:37.118Z,91.50
2017-09-21T07:56:04.560Z,91.50
2017-09-21T07:58:32.001Z,91.50
2017-09-21T08:01:00.201Z,91.60
2017-09-21T08:03:27.660Z,91.60
2017-09-21T08:05:55.098Z,91.70
2017-09-21T08:08:23.304Z,91.90
2017-09-21T08:10:50.760Z,91.90
2017-09-21T08:13:18.200Z,92.00
2017-09-21T08:15:45.645Z,91.80
2017-09-21T08:18:13.858Z,92.60
2017-09-21T08:20:41.303Z,92.50
2017-09-21T08:23:08.741Z,92.30
2017-09-21T08:25:36.176Z,92.10
2017-09-21T08:28:04.394Z,92.40
2017-09-21T08:30:31.837Z,92.40
2017-09-21T08:32:59.286Z,92.10
2017-09-21T08:35:26.729Z,92.00
2017-09-21T08:37:54.932Z,92.10
2017-09-21T08:40:22.376Z,92.10
2017-09-21T08:42:49.812Z,92.20
2017-09-21T08:45:18.029Z,92.00
2017-09-21T08:47:45.461Z,92.00
2017-09-21T08:50:12.915Z,91.70
2017-09-21T08:52:41.117Z,92.50
2017-09-21T08:55:08.556Z,92.50
2017-09-21T08:57:36.061Z,92.20
2017-09-21T09:00:03.501Z,92.20
2017-09-21T09:02:30.951Z,92.30
2017-09-21T09:04:58.384Z,92.00
2017-09-21T09:07:25.834Z,92.20
2017-09-21T09:09:53.275Z,91.60
2017-09-21T09:12:21.482Z,92.00
2017-09-21T09:14:48.924Z,92.00
2017-09-21T09:17:16.363Z,91.90
2017-09-21T09:19:44.575Z,91.70
2017-09-21T09:22:12.004Z,91.70
2017-09-21T09:24:40.215Z,91.70
2017-09-21T09:27:07.648Z,91.70
2017-09-21T09:29:35.109Z,91.80
2017-09-21T09:32:02.546Z,91.50
2017-09-21T09:34:30.750Z,91.60
2017-09-21T09:36:58.194Z,91.60
2017-09-21T09:39:25.632Z,91.80
2017-09-21T09:41:53.842Z,91.20
2017-09-21T09:44:21.272Z,91.20
2017-09-21T09:46:49.483Z,90.90
2017-09-21T09:49:17.030Z,90.90
2017-09-21T09:51:44.459Z,91.60
2017-09-21T09:54:12.669Z,92.00
2017-09-21T09:56:40.102Z,92.00
2017-09-21T09:59:07.636Z,90.90
2017-09-21T10:01:35.077Z,91.30
2017-09-21T10:04:02.508Z,90.80
2017-09-21T10:06:29.960Z,90.40
2017-09-21T10:08:57.403Z,90.40
2017-09-21T10:11:24.856Z,90.70
2017-09-21T10:13:52.284Z,91.00
2017-09-21T10:16:20.516Z,90.00
2017-09-21T10:18:47.927Z,90.00
2017-09-21T10:21:15.413Z,89.30
2017-09-21T10:23:42.850Z,89.30
2017-09-21T10:26:11.270Z,89.50
2017-09-21T10:28:38.720Z,89.50
2017-09-21T10:31:06.198Z,90.10
2017-09-21T10:33:33.644Z,90.30
2017-09-21T10:36:01.197Z,88.40
2017-09-21T10:38:28.633Z,90.70
2017-09-21T10:40:56.157Z,88.70
2017-09-21T10:43:24.361Z,85.70
2017-09-21T10:45:51.814Z,85.60
2017-09-21T10:48:19.256Z,83.90
2017-09-21T10:50:47.460Z,83.90
2017-09-21T10:53:14.902Z,83.80
2017-09-21T10:55:42.351Z,80.40
2017-09-21T10:58:09.783Z,78.80
2017-09-21T11:00:38.011Z,76.30
2017-09-21T11:03:05.465Z,76.20
2017-09-21T11:05:32.913Z,76.80
2017-09-21T11:08:00.371Z,74.70
2017-09-21T11:10:27.791Z,73.20
2017-09-21T11:12:56.011Z,72.80
2017-09-21T11:15:23.449Z,72.70
2017-09-21T11:17:51.034Z,71.20
2017-09-21T11:20:18.484Z,72.00
2017-09-21T11:22:45.920Z,71.30
2017-09-21T11:25:13.356Z,71.20
2017-09-21T11:27:41.577Z,70.90
2017-09-21T11:30:09.026Z,70.90
2017-09-21T11:32:36.461Z,71.70
2017-09-21T11:35:03.901Z,69.40
2017-09-21T11:37:32.106Z,69.00
2017-09-21T11:39:59.536Z,68.30
2017-09-21T11:42:27.757Z,69.10
2017-09-21T11:44:55.203Z,69.20
2017-09-21T11:47:22.728Z,70.00
2017-09-21T11:49:51.013Z,70.50
2017-09-21T11:52:19.223Z,74.40
2017-09-21T11:54:46.636Z,74.40
2017-09-21T11:57:14.844Z,76.20
2017-09-21T11:59:42.289Z,76.10
2017-09-21T12:02:09.745Z,76.70
2017-09-21T12:04:37.193Z,72.20
2017-09-21T12:07:04.652Z,70.40
2017-09-21T12:09:32.217Z,70.80
2017-09-21T12:11:59.652Z,71.30
2017-09-21T12:14:27.881Z,72.10
2017-09-21T12:16:55.322Z,72.10
2017-09-21T12:19:22.767Z,70.70
2017-09-21T12:21:50.204Z,69.80
2017-09-21T12:24:18.415Z,72.90
2017-09-21T12:26:45.857Z,72.70
2017-09-21T12:29:13.303Z,71.80
2017-09-21T12:31:40.761Z,72.70
2017-09-21T12:34:09.021Z,73.20
2017-09-21T12:36:37.217Z,70.90
2017-09-21T12:39:04.666Z,70.80
2017-09-21T12:41:32.106Z,69.90
2017-09-21T12:44:00.320Z,75.00
2017-09-21T12:46:27.749Z,74.90
2017-09-21T12:48:55.969Z,70.40
2017-09-21T12:51:23.410Z,70.40
2017-09-21T12:53:50.865Z,71.60
2017-09-21T12:56:18.303Z,76.10
2017-09-21T12:58:45.741Z,78.50
2017-09-21T13:01:13.954Z,71.30
2017-09-21T13:03:41.428Z,71.30
2017-09-21T13:06:08.874Z,73.00
2017-09-21T13:08:36.312Z,74.80
2017-09-21T13:11:03.741Z,73.40
2017-09-21T13:13:31.945Z,68.00
2017-09-21T13:15:59.389Z,67.90
2017-09-21T13:18:26.825Z,68.80
2017-09-21T13:20:54.254Z,72.10
2017-09-21T13:23:21.756Z,75.00
2017-09-21T13:25:50.017Z,70.50
2017-09-21T13:28:17.445Z,70.50
2017-09-21T13:30:44.881Z,73.30
2017-09-21T13:33:12.309Z,75.10
2017-09-21T13:35:39.753Z,75.90
2017-09-21T13:38:07.951Z,69.80
2017-09-21T13:40:35.384Z,69.70
2017-09-21T13:43:03.593Z,64.50
2017-09-21T13:45:31.021Z,64.50
2017-09-21T13:47:59.214Z,72.10
2017-09-21T13:50:26.654Z,72.20
2017-09-21T13:52:54.844Z,70.30
2017-09-21T13:55:22.282Z,70.10
2017-09-21T13:57:50.470Z,68.90
2017-09-21T14:00:17.905Z,68.90
2017-09-21T14:02:46.100Z,66.00
2017-09-21T14:05:13.531Z,65.90
2017-09-21T14:07:41.737Z,68.30
2017-09-21T14:10:09.193Z,68.30
2017-09-21T14:12:37.424Z,71.10
2017-09-21T14:15:04.850Z,68.50
2017-09-21T14:17:32.318Z,69.00
2017-09-21T14:19:59.754Z,69.10
2017-09-21T14:22:27.184Z,67.20
2017-09-21T14:24:54.622Z,66.00
2017-09-21T14:27:22.821Z,66.60
2017-09-21T14:29:50.248Z,66.30
2017-09-21T14:32:17.686Z,71.20
2017-09-21T14:34:45.121Z,72.90
2017-09-21T14:37:12.564Z,67.70
2017-09-21T14:39:40.005Z,67.70
2017-09-21T14:42:07.441Z,67.60
2017-09-21T14:44:35.644Z,68.30
2017-09-21T14:47:03.081Z,68.10
2017-09-21T14:49:31.281Z,67.70
2017-09-21T14:51:58.709Z,67.50
2017-09-21T14:54:26.905Z,71.60
2017-09-21T14:56:54.341Z,71.60
2017-09-21T14:59:22.520Z,71.10
2017-09-21T15:01:49.957Z,71.10
2017-09-21T15:04:17.397Z,71.40
2017-09-21T15:06:44.834Z,72.50
2017-09-21T15:09:12.309Z,73.00
2017-09-21T15:11:39.745Z,73.60
2017-09-21T15:14:07.173Z,73.60
2017-09-21T15:16:34.596Z,74.40
2017-09-21T15:19:02.067Z,75.00
2017-09-21T15:21:30.271Z,73.40
2017-09-21T15:23:57.688Z,73.20
2017-09-21T15:26:25.897Z,72.70
2017-09-21T15:28:53.331Z,72.70
2017-09-21T15:31:21.536Z,75.20
2017-09-21T15:33:48.957Z,75.20
2017-09-21T15:36:17.145Z,74.30
2017-09-21T15:38:45.345Z,75.20
2017-09-21T15:41:12.771Z,75.20
2017-09-21T15:43:40.210Z,72.70
2017-09-21T15:46:07.645Z,72.30
2017-09-21T15:48:35.077Z,75.60
2017-09-21T15:51:02.509Z,76.90
2017-09-21T15:53:29.948Z,76.20
2017-09-21T15:55:58.146Z,76.40
2017-09-21T15:58:25.583Z,76.40
2017-09-21T16:00:53.796Z,78.10
2017-09-21T16:03:21.234Z,78.20
2017-09-21T16:05:48.661Z,78.70
2017-09-21T16:08:16.168Z,79.20
2017-09-21T16:10:43.602Z,80.20
2017-09-21T16:13:11.026Z,81.10
2017-09-21T16:15:38.469Z,81.30
2017-09-21T16:18:05.894Z,82.40
2017-09-21T16:20:33.335Z,83.30
2017-09-21T16:23:00.753Z,83.90
2017-09-21T16:25:28.197Z,84.20
2017-09-21T16:27:55.620Z,84.30
2017-09-21T16:30:23.061Z,84.50
2017-09-21T16:32:50.484Z,84.80
2017-09-21T16:35:17.930Z,84.20
2017-09-21T16:37:45.349Z,82.50
2017-09-21T16:40:12.784Z,81.70
2017-09-21T16:42:40.208Z,81.70
2017-09-21T16:45:07.636Z,82.60
2017-09-21T16:47:35.091Z,85.50
2017-09-21T16:50:02.533Z,85.70
2017-09-21T16:52:29.973Z,86.00
2017-09-21T16:54:57.406Z,86.30
2017-09-21T16:57:25.591Z,86.70
2017-09-21T16:59:53.034Z,86.00
2017-09-21T17:02:21.230Z,82.90
2017-09-21T17:04:48.660Z,82.90
2017-09-21T17:07:16.890Z,84.60
2017-09-21T17:09:44.334Z,84.60
2017-09-21T17:12:11.764Z,84.40
2017-09-21T17:14:39.192Z,84.40
2017-09-21T17:17:06.629Z,85.10
2017-09-21T17:19:34.061Z,86.20
2017-09-21T17:22:01.484Z,85.60
2017-09-21T17:24:29.685Z,86.20
2017-09-21T17:26:57.113Z,86.10
2017-09-21T17:29:25.322Z,87.80
2017-09-21T17:31:52.740Z,87.80
2017-09-21T17:34:20.940Z,87.50
2017-09-21T17:36:48.373Z,87.50
2017-09-21T17:39:16.579Z,87.90
2017-09-21T17:41:44.025Z,87.90
2017-09-21T17:44:11.449Z,89.00
2017-09-21T17:46:38.880Z,89.30
2017-09-21T17:49:06.315Z,89.60
2017-09-21T17:51:33.773Z,89.70
2017-09-21T17:54:01.238Z,89.50
2017-09-21T17:56:28.668Z,89.40
2017-09-21T17:58:56.105Z,89.40
2017-09-21T18:01:24.314Z,89.70
2017-09-21T18:03:51.740Z,89.60
2017-09-21T18:06:19.945Z,90.20
2017-09-21T18:08:47.387Z,90.10
2017-09-21T18:11:14.815Z,90.40
2017-09-21T18:13:43.013Z,90.30
2017-09-21T18:16:10.496Z,90.20
2017-09-21T18:18:37.930Z,90.60
2017-09-21T18:21:05.363Z,90.60
2017-09-21T18:23:32.788Z,90.50
2017-09-21T18:26:00.241Z,90.60
2017-09-21T18:28:27.669Z,90.70
2017-09-21T18:30:55.100Z,90.80
2017-09-21T18:33:23.302Z,91.30
2017-09-21T18:35:50.729Z,91.20
2017-09-21T18:38:18.937Z,91.50
2017-09-21T18:40:46.364Z,91.50
2017-09-21T18:43:14.571Z,91.60
2017-09-21T18:45:42.004Z,91.60
2017-09-21T18:48:09.440Z,91.50
2017-09-21T18:50:37.633Z,92.10
2017-09-21T18:53:05.071Z,92.10
2017-09-21T18:55:33.267Z,91.90
2017-09-21T18:58:00.712Z,91.90
2017-09-21T19:00:28.900Z,91.90
2017-09-21T19:02:56.354Z,91.80
2017-09-21T19:05:24.532Z,91.80
2017-09-21T19:07:51.969Z,91.80
2017-09-21T19:10:20.162Z,91.50
2017-09-21T19:12:47.601Z,91.50
2017-09-21T19:15:15.790Z,91.60
2017-09-21T19:17:43.242Z,91.60
2017-09-21T19:20:11.431Z,91.70
2017-09-21T19:22:38.861Z,91.40
2017-09-21T19:25:07.056Z,91.60
2017-09-21T19:27:34.486Z,91.60
2017-09-21T19:30:02.705Z,91.70
2017-09-21T19:32:30.143Z,91.70
2017-09-21T19:34:57.572Z,91.60
2017-09-21T19:37:25.772Z,91.40
2017-09-21T19:39:53.204Z,91.30
2017-09-21T19:42:22.397Z,91.50
2017-09-21T19:44:49.832Z,91.50
2017-09-21T19:47:17.271Z,91.40
2017-09-21T19:49:44.720Z,91.30
2017-09-21T19:52:12.152Z,91.30
2017-09-21T19:54:39.593Z,91.40
2017-09-21T19:57:07.793Z,91.10
2017-09-21T19:59:35.236Z,91.10
2017-09-21T20:02:02.668Z,91.10
2017-09-21T20:04:30.107Z,91.10
2017-09-21T20:06:57.552Z,91.10
2017-09-21T20:09:24.996Z,91.10
2017-09-21T20:11:52.430Z,91.10
2017-09-21T20:14:19.873Z,91.10
2017-09-21T20:16:48.076Z,91.60
2017-09-21T20:19:15.523Z,91.60
2017-09-21T20:21:42.956Z,91.60
2017-09-21T20:24:11.233Z,91.60
2017-09-21T20:26:39.428Z,91.80
2017-09-21T20:29:06.864Z,91.80
2017-09-21T20:31:35.073Z,91.70
2017-09-21T20:34:02.511Z,91.70
2017-09-21T20:36:29.950Z,91.80
2017-09-21T20:38:58.159Z,91.80
2017-09-21T20:41:25.592Z,91.80
2017-09-21T20:43:53.028Z,91.70
2017-09-21T20:46:21.237Z,91.70
2017-09-21T20:48:48.674Z,91.70
2017-09-21T20:51:16.885Z,91.80
2017-09-21T20:53:44.317Z,91.80
2017-09-21T20:56:11.774Z,91.90
2017-09-21T20:58:39.969Z,91.60
2017-09-21T21:01:07.409Z,91.60
2017-09-21T21:03:34.835Z,91.40
2017-09-21T21:06:03.054Z,91.80
2017-09-21T21:08:30.485Z,91.80
2017-09-21T21:10:58.694Z,91.90
2017-09-21T21:13:26.130Z,91.90
2017-09-21T21:15:53.564Z,92.20
2017-09-21T21:18:21.757Z,92.00
2017-09-21T21:20:49.218Z,92.00
2017-09-21T21:23:16.649Z,92.00
2017-09-21T21:25:44.868Z,92.20
2017-09-21T21:28:12.294Z,92.20
2017-09-21T21:30:40.497Z,92.10
2017-09-21T21:33:08.012Z,92.00
2017-09-21T21:35:36.218Z,92.00
2017-09-21T21:38:03.666Z,92.00
2017-09-21T21:40:31.096Z,92.00
2017-09-21T21:42:59.300Z,92.30
2017-09-21T21:45:26.728Z,92.00
2017-09-21T21:47:54.944Z,92.50
2017-09-21T21:50:22.376Z,92.10
2017-09-21T21:52:50.581Z,92.00
2017-09-21T21:55:18.037Z,92.00
2017-09-21T21:57:45.461Z,92.10
2017-09-21T22:00:13.657Z,91.90
2017-09-21T22:02:41.101Z,91.90
2017-09-21T22:05:09.295Z,92.20
2017-09-21T22:07:36.735Z,92.20
2017-09-21T22:10:04.171Z,92.10
2017-09-21T22:12:32.376Z,92.50
2017-09-21T22:14:59.812Z,92.20
2017-09-21T22:17:28.021Z,92.40
2017-09-21T22:19:55.452Z,92.30
2017-09-21T22:22:22.898Z,92.40
2017-09-21T22:24:51.089Z,92.40
2017-09-21T22:27:18.538Z,92.40
2017-09-21T22:29:46.734Z,92.50
2017-09-21T22:32:14.180Z,92.50
2017-09-21T22:34:41.615Z,92.40
2017-09-21T22:37:09.815Z,92.50
2017-09-21T22:39:37.257Z,92.50
2017-09-21T22:42:05.459Z,92.70
2017-09-21T22:44:32.901Z,92.70
2017-09-21T22:47:00.338Z,92.50
2017-09-21T22:49:29.637Z,92.40
2017-09-21T22:51:57.847Z,92.30
2017-09-21T22:54:25.285Z,92.20
2017-09-21T22:56:52.715Z,92.20
2017-09-21T22:59:20.925Z,92.40
2017-09-21T23:01:48.352Z,92.40
2017-09-21T23:04:16.572Z,92.60
2017-09-21T23:06:44.001Z,92.60
2017-09-21T23:09:11.432Z,92.50
2017-09-21T23:11:38.874Z,92.40
2017-09-21T23:14:06.309Z,92.30
2017-09-21T23:16:34.516Z,92.50
2017-09-21T23:19:01.943Z,92.50
2017-09-21T23:21:29.385Z,92.30
2017-09-21T23:23:56.829Z,92.30
2017-09-21T23:26:24.265Z,92.50
2017-09-21T23:28:52.481Z,92.30
2017-09-21T23:31:19.912Z,92.30
2017-09-21T23:33:47.352Z,92.30
2017-09-21T23:36:15.568Z,92.40
2017-09-21T23:38:43.073Z,92.30
2017-09-21T23:41:10.504Z,92.40
2017-09-21T23:43:37.949Z,92.50
2017-09-21T23:46:05.389Z,92.50
2017-09-21T23:48:32.833Z,92.50
2017-09-21T23:51:00.256Z,92.40
2017-09-21T23:53:28.490Z,92.50
2017-09-21T23:55:55.897Z,92.50
2017-09-21T23:58:24.091Z,92.50
